Time;durP1;ratioP1;P1;durP2;ratioP2;P2;SDS_P1;SDS_P2;PMS_P1;PMS_P2;Temp;Humidity;BMP_temperature;BMP_pressure;BME280_temperature;BME280_humidity;BME280_pressure;Samples;Min_cycle;Max_cycle;Signal;HPM_P1;HPM_P2
2022/03/24 00:01:57;;;;;;;2.88;0.70;;;;;;;;;;5010257;27;20045;-65
2022/03/24 00:04:23;;;;;;;5.78;1.10;;;;;;;;;;5009783;28;20143;-65
2022/03/24 00:06:49;;;;;;;6.55;0.93;;;;;;;;;;5010247;28;20164;-64
2022/03/24 00:09:15;;;;;;;4.22;1.00;;;;;;;;;;5014503;27;20053;-65
2022/03/24 00:11:41;;;;;;;8.48;1.17;;;;;;;;;;5008288;28;20038;-65
2022/03/24 00:14:08;;;;;;;5.43;1.10;;;;;;;;;;5008014;28;20039;-65
2022/03/24 00:16:34;;;;;;;6.25;0.88;;;;;;;;;;5007125;28;20125;-64
2022/03/24 00:18:59;;;;;;;6.35;0.90;;;;;;;;;;5008263;28;20061;-64
2022/03/24 00:21:26;;;;;;;7.10;1.27;;;;;;;;;;5008265;28;20115;-66
2022/03/24 00:23:52;;;;;;;6.45;0.90;;;;;;;;;;5009461;28;20122;-64
2022/03/24 00:26:18;;;;;;;10.52;1.27;;;;;;;;;;5007721;28;20046;-64
2022/03/24 00:28:44;;;;;;;3.72;1.00;;;;;;;;;;5009302;28;20044;-65
2022/03/24 00:31:10;;;;;;;7.70;1.83;;;;;;;;;;5010375;27;20121;-64
2022/03/24 00:33:38;;;;;;;4.90;1.20;;;;;;;;;;5008469;28;20117;-63
2022/03/24 00:36:04;;;;;;;3.83;1.00;;;;;;;;;;5008979;28;20038;-63
2022/03/24 00:38:30;;;;;;;4.40;1.00;;;;;;;;;;5109400;27;20049;-60
2022/03/24 00:40:56;;;;;;;6.55;1.08;;;;;;;;;;5011851;27;20046;-61
2022/03/24 00:43:23;;;;;;;7.88;1.17;;;;;;;;;;5009911;27;20042;-60
2022/03/24 00:45:51;;;;;;;9.43;1.20;;;;;;;;;;5008416;27;20167;-61
2022/03/24 00:48:17;;;;;;;4.45;1.17;;;;;;;;;;5010035;28;21849;-60
2022/03/24 00:50:43;;;;;;;4.65;1.13;;;;;;;;;;5011348;27;20474;-60
2022/03/24 00:53:10;;;;;;;7.15;1.38;;;;;;;;;;5009930;28;20049;-60
2022/03/24 00:55:36;;;;;;;5.07;1.10;;;;;;;;;;5007401;28;20968;-60
2022/03/24 00:58:02;;;;;;;10.63;1.63;;;;;;;;;;5003580;28;20045;-61
2022/03/24 01:00:30;;;;;;;4.88;0.90;;;;;;;;;;5008734;27;20069;-61
2022/03/24 01:02:57;;;;;;;11.57;1.20;;;;;;;;;;5007681;28;20054;-61
2022/03/24 01:05:23;;;;;;;5.88;1.30;;;;;;;;;;5006939;28;20041;-62
2022/03/24 01:07:49;;;;;;;3.53;1.10;;;;;;;;;;5006896;27;20045;-60
2022/03/24 01:10:17;;;;;;;7.25;1.17;;;;;;;;;;5008430;27;20637;-61
2022/03/24 01:12:43;;;;;;;3.20;0.80;;;;;;;;;;5001448;28;20099;-60
2022/03/24 01:15:10;;;;;;;5.32;1.00;;;;;;;;;;5004835;28;20043;-61
2022/03/24 01:17:36;;;;;;;4.13;1.00;;;;;;;;;;5003791;28;20069;-59
2022/03/24 01:20:03;;;;;;;4.03;1.00;;;;;;;;;;5006956;28;20093;-61
2022/03/24 01:22:29;;;;;;;5.22;1.10;;;;;;;;;;5002842;28;20042;-60
2022/03/24 01:24:56;;;;;;;11.45;1.33;;;;;;;;;;5027739;27;20584;-60
2022/03/24 01:27:26;;;;;;;5.00;1.10;;;;;;;;;;5077814;27;20184;-61
2022/03/24 01:29:54;;;;;;;4.63;0.80;;;;;;;;;;5008093;27;20058;-59
2022/03/24 01:32:20;;;;;;;4.22;1.00;;;;;;;;;;5008274;28;20513;-60
2022/03/24 01:34:46;;;;;;;4.35;1.05;;;;;;;;;;5011642;27;20067;-60
2022/03/24 01:37:12;;;;;;;9.50;1.17;;;;;;;;;;5006574;28;20513;-60
2022/03/24 01:39:38;;;;;;;5.97;1.15;;;;;;;;;;5005904;28;20048;-59
2022/03/24 01:42:05;;;;;;;11.30;2.28;;;;;;;;;;5006614;28;20311;-59
2022/03/24 01:44:31;;;;;;;5.05;1.05;;;;;;;;;;5008286;28;20053;-60
2022/03/24 01:47:01;;;;;;;6.75;1.20;;;;;;;;;;5005274;28;20041;-61
2022/03/24 01:49:28;;;;;;;3.72;0.93;;;;;;;;;;5006723;27;20055;-61
2022/03/24 01:51:54;;;;;;;4.47;1.10;;;;;;;;;;5007896;28;20037;-61
2022/03/24 01:54:24;;;;;;;12.80;1.90;;;;;;;;;;5004280;28;20056;-60
2022/03/24 01:56:51;;;;;;;28.05;3.25;;;;;;;;;;5002762;28;20042;-62
2022/03/24 01:59:17;;;;;;;22.98;2.38;;;;;;;;;;5008088;27;20037;-61
2022/03/24 02:01:44;;;;;;;4.28;1.20;;;;;;;;;;5004790;28;20068;-60
2022/03/24 02:04:10;;;;;;;4.90;1.08;;;;;;;;;;5005366;27;20068;-61
2022/03/24 02:06:36;;;;;;;6.82;1.30;;;;;;;;;;5004458;28;20103;-62
2022/03/24 02:09:06;;;;;;;7.38;1.60;;;;;;;;;;5005837;28;20132;-61
2022/03/24 02:11:33;;;;;;;5.18;1.80;;;;;;;;;;5004340;28;21159;-62
2022/03/24 02:13:59;;;;;;;9.70;1.40;;;;;;;;;;5006210;28;20059;-61
2022/03/24 02:16:29;;;;;;;8.88;1.20;;;;;;;;;;5004144;28;20467;-61
2022/03/24 02:18:59;;;;;;;6.70;1.17;;;;;;;;;;5004876;28;20545;-61
2022/03/24 02:21:27;;;;;;;3.65;0.80;;;;;;;;;;5004513;28;20044;-61
2022/03/24 02:23:54;;;;;;;4.75;1.00;;;;;;;;;;5006070;28;20037;-62
2022/03/24 02:26:19;;;;;;;5.68;1.05;;;;;;;;;;5006682;28;20049;-62
2022/03/24 02:28:46;;;;;;;6.60;0.93;;;;;;;;;;5006565;28;20057;-63
2022/03/24 02:31:15;;;;;;;3.25;1.00;;;;;;;;;;5108082;27;20167;-61
2022/03/24 02:33:41;;;;;;;3.72;0.70;;;;;;;;;;5004996;27;20042;-59
2022/03/24 02:36:07;;;;;;;5.68;1.00;;;;;;;;;;5013351;28;20068;-59
2022/03/24 02:38:33;;;;;;;7.40;1.25;;;;;;;;;;5007626;27;20038;-60
2022/03/24 02:40:59;;;;;;;5.60;1.00;;;;;;;;;;5007741;28;20049;-61
2022/03/24 02:43:26;;;;;;;11.00;1.23;;;;;;;;;;5012681;28;20090;-62
2022/03/24 02:45:53;;;;;;;10.82;1.60;;;;;;;;;;5009090;27;20380;-60
2022/03/24 02:48:21;;;;;;;6.60;1.13;;;;;;;;;;5006054;28;20074;-60
2022/03/24 02:50:48;;;;;;;11.20;1.42;;;;;;;;;;5006931;28;20054;-60
2022/03/24 02:53:15;;;;;;;7.72;1.20;;;;;;;;;;5007621;28;21992;-58
2022/03/24 02:55:41;;;;;;;5.75;1.30;;;;;;;;;;5007512;28;20113;-61
2022/03/24 02:58:08;;;;;;;10.50;1.40;;;;;;;;;;5015335;28;20044;-58
2022/03/24 03:00:34;;;;;;;4.53;1.02;;;;;;;;;;5007673;28;20067;-60
2022/03/24 03:03:00;;;;;;;4.90;1.05;;;;;;;;;;5010398;27;20037;-60
2022/03/24 03:05:26;;;;;;;3.33;1.00;;;;;;;;;;5006002;28;20036;-61
2022/03/24 03:07:52;;;;;;;4.20;0.80;;;;;;;;;;4997567;28;20034;-59
2022/03/24 03:10:18;;;;;;;4.82;0.98;;;;;;;;;;5005499;28;21645;-59
2022/03/24 03:12:46;;;;;;;2.08;0.70;;;;;;;;;;5005215;28;20041;-58
2022/03/24 03:15:12;;;;;;;6.07;1.38;;;;;;;;;;5006138;28;20068;-60
2022/03/24 03:17:38;;;;;;;4.07;1.15;;;;;;;;;;5007244;28;20033;-60
2022/03/24 03:20:05;;;;;;;6.85;1.40;;;;;;;;;;5006076;28;20076;-59
2022/03/24 03:22:32;;;;;;;4.35;1.17;;;;;;;;;;5021755;28;20162;-59
2022/03/24 03:24:59;;;;;;;5.13;0.90;;;;;;;;;;5024538;28;20137;-59
2022/03/24 03:27:27;;;;;;;4.97;1.02;;;;;;;;;;5007240;28;20417;-60
2022/03/24 03:29:53;;;;;;;2.72;0.80;;;;;;;;;;5010528;27;20133;-60
2022/03/24 03:32:21;;;;;;;4.93;0.90;;;;;;;;;;5009179;27;20414;-60
2022/03/24 03:34:49;;;;;;;6.97;0.85;;;;;;;;;;5009656;27;20486;-60
2022/03/24 03:37:16;;;;;;;6.57;1.23;;;;;;;;;;5008529;28;20255;-61
2022/03/24 03:39:42;;;;;;;4.05;0.93;;;;;;;;;;5008969;28;20068;-61
2022/03/24 03:42:08;;;;;;;6.82;1.08;;;;;;;;;;5009556;27;21636;-59
2022/03/24 03:44:34;;;;;;;7.65;1.50;;;;;;;;;;5007353;28;20089;-60
2022/03/24 03:47:01;;;;;;;10.13;1.70;;;;;;;;;;5009602;27;20052;-60
2022/03/24 03:49:27;;;;;;;11.02;1.60;;;;;;;;;;5023731;27;20190;-61
2022/03/24 03:51:53;;;;;;;7.47;1.30;;;;;;;;;;5009068;27;20122;-61
2022/03/24 03:54:20;;;;;;;3.60;1.05;;;;;;;;;;5004784;28;20490;-60
2022/03/24 03:56:46;;;;;;;2.97;0.90;;;;;;;;;;5003278;28;20037;-61
2022/03/24 03:59:12;;;;;;;3.92;1.00;;;;;;;;;;5005824;28;20832;-59
2022/03/24 04:01:38;;;;;;;3.72;1.05;;;;;;;;;;5007816;27;20037;-60
2022/03/24 04:04:07;;;;;;;7.72;1.52;;;;;;;;;;5041211;28;20036;-60
2022/03/24 04:06:33;;;;;;;5.20;1.08;;;;;;;;;;5005596;28;20033;-61
2022/03/24 04:08:58;;;;;;;6.10;0.98;;;;;;;;;;5006903;28;20038;-61
2022/03/24 04:11:25;;;;;;;5.38;0.80;;;;;;;;;;5009001;28;20055;-59
2022/03/24 04:13:51;;;;;;;6.60;1.10;;;;;;;;;;5006310;28;20041;-59
2022/03/24 04:16:17;;;;;;;3.22;0.90;;;;;;;;;;5007113;27;20038;-60
2022/03/24 04:18:43;;;;;;;3.03;0.82;;;;;;;;;;5006253;28;20049;-58
2022/03/24 04:21:09;;;;;;;5.38;1.50;;;;;;;;;;5007616;28;21860;-58
2022/03/24 04:23:36;;;;;;;3.35;1.00;;;;;;;;;;5006168;28;20468;-59
2022/03/24 04:26:03;;;;;;;2.75;0.80;;;;;;;;;;5020592;28;20037;-59
2022/03/24 04:28:29;;;;;;;4.25;0.98;;;;;;;;;;5007368;27;20041;-60
2022/03/24 04:30:55;;;;;;;3.88;0.85;;;;;;;;;;5008107;28;20068;-60
2022/03/24 04:33:21;;;;;;;5.68;1.02;;;;;;;;;;5005987;28;20034;-60
2022/03/24 04:35:47;;;;;;;5.00;1.08;;;;;;;;;;5007361;27;20033;-60
2022/03/24 04:38:14;;;;;;;3.92;1.00;;;;;;;;;;5008923;28;20038;-60
2022/03/24 04:40:40;;;;;;;2.85;0.73;;;;;;;;;;5009902;28;20150;-60
2022/03/24 04:43:06;;;;;;;6.57;0.85;;;;;;;;;;5008843;28;20034;-61
2022/03/24 04:45:33;;;;;;;5.18;0.70;;;;;;;;;;5009643;27;20852;-61
2022/03/24 04:48:00;;;;;;;3.55;0.80;;;;;;;;;;5006663;28;20046;-60
2022/03/24 04:50:26;;;;;;;3.03;0.90;;;;;;;;;;5008628;28;20045;-59
2022/03/24 04:52:52;;;;;;;11.93;1.73;;;;;;;;;;5008570;28;20045;-60
2022/03/24 04:55:18;;;;;;;26.45;3.33;;;;;;;;;;5007005;28;20042;-60
2022/03/24 04:57:44;;;;;;;18.23;2.58;;;;;;;;;;5008432;28;20524;-57
2022/03/24 05:00:11;;;;;;;23.13;1.95;;;;;;;;;;5005880;28;20041;-60
2022/03/24 05:02:37;;;;;;;13.02;1.75;;;;;;;;;;5007191;27;20061;-60
2022/03/24 05:05:03;;;;;;;10.82;1.33;;;;;;;;;;5007010;28;20034;-60
2022/03/24 05:07:29;;;;;;;3.67;0.70;;;;;;;;;;5007553;27;20080;-60
2022/03/24 05:09:55;;;;;;;1.30;0.40;;;;;;;;;;5008613;28;20521;-60
2022/03/24 05:12:21;;;;;;;1.92;0.50;;;;;;;;;;5005249;28;20048;-60
2022/03/24 05:14:47;;;;;;;1.58;0.50;;;;;;;;;;5007884;28;20393;-59
2022/03/24 05:17:13;;;;;;;1.08;0.50;;;;;;;;;;5006827;28;20041;-59
2022/03/24 05:19:39;;;;;;;3.80;0.55;;;;;;;;;;5005977;28;20821;-59
2022/03/24 05:22:06;;;;;;;1.17;0.55;;;;;;;;;;5007756;28;20053;-59
2022/03/24 05:24:32;;;;;;;2.90;0.60;;;;;;;;;;5003672;28;20426;-58
2022/03/24 05:26:58;;;;;;;3.22;0.50;;;;;;;;;;5006480;28;20203;-60
2022/03/24 05:29:24;;;;;;;1.20;0.40;;;;;;;;;;5006359;28;20049;-59
2022/03/24 05:31:50;;;;;;;1.23;0.50;;;;;;;;;;5008436;28;20052;-58
2022/03/24 05:34:16;;;;;;;1.33;0.40;;;;;;;;;;5007730;28;20049;-58
2022/03/24 05:36:42;;;;;;;1.17;0.50;;;;;;;;;;5006108;28;20067;-59
2022/03/24 05:39:08;;;;;;;2.00;0.50;;;;;;;;;;5005562;28;20155;-60
2022/03/24 05:41:34;;;;;;;1.08;0.40;;;;;;;;;;5007375;27;20037;-58
2022/03/24 05:44:02;;;;;;;1.13;0.45;;;;;;;;;;5007942;28;20500;-60
2022/03/24 05:46:32;;;;;;;1.02;0.40;;;;;;;;;;5005741;27;20041;-55
2022/03/24 05:48:58;;;;;;;1.95;0.50;;;;;;;;;;5005730;28;20041;-60
2022/03/24 05:51:24;;;;;;;1.25;0.47;;;;;;;;;;5004926;28;20156;-60
2022/03/24 05:53:50;;;;;;;0.73;0.40;;;;;;;;;;5006943;28;22315;-58
2022/03/24 05:56:16;;;;;;;1.38;0.40;;;;;;;;;;5004563;28;20553;-60
2022/03/24 05:58:42;;;;;;;4.55;0.60;;;;;;;;;;5005744;28;20049;-60
2022/03/24 06:01:09;;;;;;;3.10;0.50;;;;;;;;;;5003533;28;20108;-60
2022/03/24 06:03:35;;;;;;;2.95;0.43;;;;;;;;;;5004469;28;20194;-60
2022/03/24 06:06:02;;;;;;;3.85;0.60;;;;;;;;;;5006825;28;20461;-57
2022/03/24 06:08:28;;;;;;;2.10;0.63;;;;;;;;;;5006228;27;20521;-59
2022/03/24 06:10:54;;;;;;;1.58;0.52;;;;;;;;;;5006259;28;20054;-60
2022/03/24 06:13:20;;;;;;;2.53;0.63;;;;;;;;;;5004976;28;20178;-59
2022/03/24 06:15:50;;;;;;;0.98;0.40;;;;;;;;;;5003132;28;20037;-60
2022/03/24 06:18:16;;;;;;;17.80;2.63;;;;;;;;;;5005772;27;20050;-59
2022/03/24 06:20:43;;;;;;;3.25;0.70;;;;;;;;;;5005016;28;20042;-60
2022/03/24 06:23:09;;;;;;;2.33;0.65;;;;;;;;;;5005283;28;20049;-60
2022/03/24 06:25:37;;;;;;;6.40;0.50;;;;;;;;;;5004549;28;20048;-61
2022/03/24 06:28:04;;;;;;;8.05;0.90;;;;;;;;;;5005559;28;20120;-61
2022/03/24 06:30:30;;;;;;;5.47;0.65;;;;;;;;;;5003766;28;20073;-59
2022/03/24 06:32:56;;;;;;;3.55;0.60;;;;;;;;;;5020582;27;20037;-57
2022/03/24 06:35:22;;;;;;;9.07;0.90;;;;;;;;;;5003804;28;20052;-60
2022/03/24 06:37:50;;;;;;;4.10;0.70;;;;;;;;;;5003553;28;20042;-60
2022/03/24 06:40:16;;;;;;;8.45;1.02;;;;;;;;;;5006740;28;20042;-58
2022/03/24 06:42:42;;;;;;;3.10;0.73;;;;;;;;;;5006944;28;20647;-59
2022/03/24 06:45:10;;;;;;;10.60;1.63;;;;;;;;;;5006414;28;20052;-58
2022/03/24 06:47:36;;;;;;;5.28;1.67;;;;;;;;;;5004046;28;20586;-59
2022/03/24 06:50:03;;;;;;;1.52;0.50;;;;;;;;;;5003573;28;20053;-58
2022/03/24 06:52:29;;;;;;;1.13;0.40;;;;;;;;;;5005367;28;20038;-57
2022/03/24 06:54:55;;;;;;;2.55;0.52;;;;;;;;;;5004322;28;20042;-59
2022/03/24 06:57:21;;;;;;;0.88;0.40;;;;;;;;;;5003551;28;20037;-60
2022/03/24 06:59:47;;;;;;;4.28;0.60;;;;;;;;;;5008841;28;20041;-58
2022/03/24 07:02:13;;;;;;;3.83;0.50;;;;;;;;;;5010012;28;20428;-59
2022/03/24 07:04:39;;;;;;;1.17;0.30;;;;;;;;;;5008098;28;20046;-58
2022/03/24 07:07:05;;;;;;;1.95;0.40;;;;;;;;;;5008198;28;20141;-59
2022/03/24 07:09:31;;;;;;;1.27;0.45;;;;;;;;;;5006707;28;20046;-60
2022/03/24 07:11:57;;;;;;;1.58;0.50;;;;;;;;;;5009140;27;20038;-61
2022/03/24 07:14:24;;;;;;;2.97;0.40;;;;;;;;;;5007886;28;20046;-61
2022/03/24 07:16:51;;;;;;;1.35;0.50;;;;;;;;;;5024066;27;20052;-59
2022/03/24 07:19:19;;;;;;;1.27;0.55;;;;;;;;;;5009326;28;20135;-60
2022/03/24 07:21:45;;;;;;;1.10;0.40;;;;;;;;;;5010448;27;20346;-59
2022/03/24 07:24:11;;;;;;;0.57;0.35;;;;;;;;;;5009449;28;20045;-61
2022/03/24 07:26:37;;;;;;;1.45;0.50;;;;;;;;;;5007032;27;20149;-59
2022/03/24 07:29:03;;;;;;;0.75;0.40;;;;;;;;;;5008206;28;20437;-59
2022/03/24 07:31:29;;;;;;;1.33;0.40;;;;;;;;;;5009462;28;20046;-60
2022/03/24 07:33:56;;;;;;;1.55;0.68;;;;;;;;;;5008676;28;20510;-60
2022/03/24 07:36:22;;;;;;;1.20;0.40;;;;;;;;;;5006950;28;20421;-59
2022/03/24 07:38:52;;;;;;;1.08;0.40;;;;;;;;;;5008277;27;20065;-60
2022/03/24 07:41:18;;;;;;;1.17;0.47;;;;;;;;;;5007569;28;20041;-61
2022/03/24 07:43:44;;;;;;;2.17;0.70;;;;;;;;;;5010141;28;20045;-61
2022/03/24 07:46:10;;;;;;;0.63;0.40;;;;;;;;;;5007383;28;20045;-59
2022/03/24 07:48:38;;;;;;;0.93;0.50;;;;;;;;;;5006688;28;20129;-59
2022/03/24 07:51:05;;;;;;;0.57;0.30;;;;;;;;;;5007722;28;20053;-58
2022/03/24 07:53:39;;;;;;;1.02;0.40;;;;;;;;;;5108645;27;20144;-61
2022/03/24 07:56:05;;;;;;;1.13;0.43;;;;;;;;;;5006628;28;20516;-59
2022/03/24 07:58:31;;;;;;;1.75;0.60;;;;;;;;;;5006923;27;20501;-60
2022/03/24 08:00:59;;;;;;;1.10;0.40;;;;;;;;;;5008577;28;20041;-60
2022/03/24 08:03:25;;;;;;;0.35;0.30;;;;;;;;;;5007592;27;20154;-58
2022/03/24 08:05:51;;;;;;;0.60;0.30;;;;;;;;;;5007019;27;20045;-60
2022/03/24 08:08:17;;;;;;;1.35;0.50;;;;;;;;;;5006893;28;20033;-60
2022/03/24 08:10:49;;;;;;;2.50;0.50;;;;;;;;;;5006515;27;20054;-60
2022/03/24 08:13:16;;;;;;;0.68;0.30;;;;;;;;;;5008182;28;20131;-60
2022/03/24 08:15:43;;;;;;;1.10;0.40;;;;;;;;;;5006835;28;20525;-60
2022/03/24 08:18:09;;;;;;;1.17;0.50;;;;;;;;;;5008676;28;20046;-60
2022/03/24 08:20:36;;;;;;;0.95;0.40;;;;;;;;;;5007333;28;20082;-60
2022/03/24 08:23:02;;;;;;;1.77;0.60;;;;;;;;;;5008451;28;20050;-60
2022/03/24 08:25:29;;;;;;;0.98;0.43;;;;;;;;;;5007096;28;20506;-60
2022/03/24 08:27:55;;;;;;;1.08;0.50;;;;;;;;;;5008138;27;20556;-60
2022/03/24 08:30:21;;;;;;;0.50;0.40;;;;;;;;;;5008297;28;20133;-60
2022/03/24 08:32:47;;;;;;;0.50;0.30;;;;;;;;;;5012304;27;20460;-60
2022/03/24 08:35:13;;;;;;;1.30;0.50;;;;;;;;;;5011399;28;20123;-60
2022/03/24 08:37:39;;;;;;;1.90;0.50;;;;;;;;;;5008267;28;20038;-59
2022/03/24 08:40:06;;;;;;;4.82;0.50;;;;;;;;;;5010369;28;20061;-60
2022/03/24 08:42:32;;;;;;;1.60;0.38;;;;;;;;;;5003715;28;20071;-60
2022/03/24 08:44:58;;;;;;;1.13;0.47;;;;;;;;;;5024117;28;20034;-58
2022/03/24 08:47:24;;;;;;;0.30;0.30;;;;;;;;;;5008380;27;20055;-57
2022/03/24 08:49:50;;;;;;;1.42;0.50;;;;;;;;;;5000001;28;20080;-59
2022/03/24 08:52:16;;;;;;;0.43;0.30;;;;;;;;;;5005521;28;20046;-59
2022/03/24 08:54:41;;;;;;;0.73;0.38;;;;;;;;;;5001462;28;20095;-59
2022/03/24 08:57:08;;;;;;;0.32;0.30;;;;;;;;;;5007492;27;20565;-58
2022/03/24 08:59:35;;;;;;;1.02;0.40;;;;;;;;;;5006288;28;20042;-59
2022/03/24 09:02:01;;;;;;;0.40;0.30;;;;;;;;;;5007619;27;20042;-60
2022/03/24 09:04:27;;;;;;;1.08;0.40;;;;;;;;;;5006994;28;20102;-60
2022/03/24 09:06:53;;;;;;;0.73;0.40;;;;;;;;;;4997941;28;20037;-60
2022/03/24 09:09:22;;;;;;;1.38;0.50;;;;;;;;;;5006738;27;20049;-59
2022/03/24 09:11:51;;;;;;;1.10;0.40;;;;;;;;;;5004892;28;20065;-59
2022/03/24 09:14:17;;;;;;;1.48;0.50;;;;;;;;;;5007372;28;20029;-59
2022/03/24 09:16:44;;;;;;;1.27;0.47;;;;;;;;;;5008956;28;20405;-59
2022/03/24 09:19:10;;;;;;;1.05;0.43;;;;;;;;;;5005259;27;21687;-59
2022/03/24 09:21:36;;;;;;;1.90;0.57;;;;;;;;;;5004809;28;20090;-59
2022/03/24 09:24:02;;;;;;;1.30;0.50;;;;;;;;;;5008537;28;20041;-58
2022/03/24 09:26:28;;;;;;;0.98;0.45;;;;;;;;;;5004800;28;20128;-59
2022/03/24 09:28:54;;;;;;;1.35;0.50;;;;;;;;;;5007613;28;20041;-59
2022/03/24 09:31:20;;;;;;;1.88;0.60;;;;;;;;;;5006559;28;20045;-60
2022/03/24 09:33:46;;;;;;;1.55;0.40;;;;;;;;;;5009798;27;20033;-57
2022/03/24 09:36:12;;;;;;;1.30;0.50;;;;;;;;;;5101668;27;20041;-59
2022/03/24 09:38:38;;;;;;;1.35;0.50;;;;;;;;;;5007898;28;20045;-58
2022/03/24 09:41:08;;;;;;;2.90;0.50;;;;;;;;;;5008863;28;20073;-60
2022/03/24 09:43:35;;;;;;;1.15;0.40;;;;;;;;;;5007855;28;20053;-60
2022/03/24 09:46:02;;;;;;;1.08;0.40;;;;;;;;;;5007127;28;20058;-58
2022/03/24 09:48:28;;;;;;;1.02;0.40;;;;;;;;;;5005381;27;20045;-59
2022/03/24 09:50:54;;;;;;;1.38;0.50;;;;;;;;;;5005744;28;20045;-60
2022/03/24 09:53:20;;;;;;;0.50;0.30;;;;;;;;;;5005763;27;21190;-60
2022/03/24 09:55:47;;;;;;;1.13;0.50;;;;;;;;;;5003518;28;20645;-61
2022/03/24 09:58:13;;;;;;;1.50;0.40;;;;;;;;;;5007229;28;20038;-60
2022/03/24 10:00:39;;;;;;;1.25;0.40;;;;;;;;;;5005162;28;20041;-60
2022/03/24 10:03:15;;;;;;;1.27;0.50;;;;;;;;;;5007092;28;20124;-59
2022/03/24 10:05:55;;;;;;;1.17;0.43;;;;;;;;;;5004401;28;21011;-59
2022/03/24 10:08:21;;;;;;;1.30;0.50;;;;;;;;;;5004805;28;20053;-60
2022/03/24 10:10:47;;;;;;;1.25;0.43;;;;;;;;;;5004398;28;20058;-59
2022/03/24 10:13:12;;;;;;;1.02;0.40;;;;;;;;;;5008055;28;21665;-60
2022/03/24 10:15:38;;;;;;;1.55;0.52;;;;;;;;;;5003469;28;20057;-59
2022/03/24 10:18:04;;;;;;;0.35;0.30;;;;;;;;;;5004527;28;20113;-60
2022/03/24 10:20:31;;;;;;;1.42;0.50;;;;;;;;;;5004471;28;20952;-60
2022/03/24 10:22:58;;;;;;;0.68;0.40;;;;;;;;;;5006488;28;20064;-59
2022/03/24 10:25:25;;;;;;;1.38;0.50;;;;;;;;;;5003302;28;20129;-59
2022/03/24 10:28:01;;;;;;;1.25;0.40;;;;;;;;;;5006178;28;20402;-60
2022/03/24 10:30:27;;;;;;;1.88;0.50;;;;;;;;;;5003989;28;20121;-59
2022/03/24 10:32:57;;;;;;;0.90;0.40;;;;;;;;;;5007372;27;20491;-57
2022/03/24 10:35:23;;;;;;;1.25;0.40;;;;;;;;;;5021701;27;20077;-59
2022/03/24 10:37:50;;;;;;;0.40;0.40;;;;;;;;;;5006674;28;20167;-60
2022/03/24 10:40:16;;;;;;;1.15;0.40;;;;;;;;;;5022803;27;20064;-59
2022/03/24 10:42:42;;;;;;;1.50;0.50;;;;;;;;;;5006189;28;20067;-60
2022/03/24 10:45:14;;;;;;;1.35;0.43;;;;;;;;;;5005200;28;20095;-59
2022/03/24 10:47:40;;;;;;;2.20;0.55;;;;;;;;;;5005266;28;20041;-59
2022/03/24 10:50:23;;;;;;;1.38;0.40;;;;;;;;;;5005713;28;20106;-59
2022/03/24 10:52:51;;;;;;;0.88;0.32;;;;;;;;;;5007051;28;20049;-57
2022/03/24 10:55:25;;;;;;;0.80;0.30;;;;;;;;;;4999204;28;20375;-59
2022/03/24 10:57:51;;;;;;;3.67;0.40;;;;;;;;;;5007856;28;20068;-56
2022/03/24 11:00:20;;;;;;;2.40;0.50;;;;;;;;;;5009950;28;20563;-60
2022/03/24 11:02:46;;;;;;;1.42;0.50;;;;;;;;;;5005964;28;20042;-60
2022/03/24 11:05:15;;;;;;;0.90;0.40;;;;;;;;;;5008190;28;20045;-58
2022/03/24 11:07:41;;;;;;;1.23;0.40;;;;;;;;;;5005622;28;20069;-59
2022/03/24 11:10:13;;;;;;;0.95;0.30;;;;;;;;;;5004933;28;21804;-59
2022/03/24 11:12:39;;;;;;;0.32;0.22;;;;;;;;;;5096999;27;20038;-60
2022/03/24 11:15:07;;;;;;;0.30;0.30;;;;;;;;;;5005500;28;20029;-59
2022/03/24 11:17:37;;;;;;;0.95;0.40;;;;;;;;;;5003239;28;20064;-60
2022/03/24 11:20:06;;;;;;;1.55;0.40;;;;;;;;;;5006034;28;20041;-59
2022/03/24 11:22:52;;;;;;;1.77;0.50;;;;;;;;;;5003770;28;20599;-60
2022/03/24 11:25:18;;;;;;;0.55;0.30;;;;;;;;;;5006188;28;20075;-59
2022/03/24 11:27:45;;;;;;;0.88;0.40;;;;;;;;;;4999661;28;20042;-61
2022/03/24 11:30:12;;;;;;;0.68;0.38;;;;;;;;;;5003744;28;20137;-61
2022/03/24 11:32:40;;;;;;;1.23;0.40;;;;;;;;;;5005517;28;20030;-60
2022/03/24 11:35:07;;;;;;;1.60;0.50;;;;;;;;;;5005791;28;20038;-60
2022/03/24 11:37:34;;;;;;;0.60;0.30;;;;;;;;;;5004208;28;20089;-58
2022/03/24 11:40:03;;;;;;;1.67;0.47;;;;;;;;;;5005244;28;20034;-61
2022/03/24 11:42:30;;;;;;;0.80;0.40;;;;;;;;;;5006217;28;20046;-61
2022/03/24 11:45:07;;;;;;;0.60;0.38;;;;;;;;;;5006564;28;20072;-61
2022/03/24 11:47:47;;;;;;;1.20;0.40;;;;;;;;;;5009704;28;20049;-59
2022/03/24 11:50:14;;;;;;;1.15;0.38;;;;;;;;;;5008868;28;20046;-60
2022/03/24 11:52:40;;;;;;;1.20;0.40;;;;;;;;;;5003722;28;20155;-60
2022/03/24 11:55:12;;;;;;;2.40;0.50;;;;;;;;;;5008650;27;20127;-60
2022/03/24 11:57:38;;;;;;;1.03;0.40;;;;;;;;;;5007319;28;20041;-60
2022/03/24 12:00:13;;;;;;;0.80;0.35;;;;;;;;;;5008469;28;20286;-60
2022/03/24 12:02:39;;;;;;;1.33;0.50;;;;;;;;;;5022864;28;20588;-60
2022/03/24 12:05:06;;;;;;;1.67;0.50;;;;;;;;;;5009405;27;20033;-60
2022/03/24 12:07:32;;;;;;;1.10;0.47;;;;;;;;;;5009177;27;20509;-60
2022/03/24 12:10:00;;;;;;;1.08;0.40;;;;;;;;;;5008459;28;20152;-60
2022/03/24 12:12:26;;;;;;;0.75;0.30;;;;;;;;;;5006914;28;20466;-59
2022/03/24 12:14:54;;;;;;;1.55;0.50;;;;;;;;;;5009338;27;20042;-60
2022/03/24 12:17:22;;;;;;;2.17;0.50;;;;;;;;;;5004074;28;20498;-60
2022/03/24 12:19:52;;;;;;;1.30;0.40;;;;;;;;;;5009030;27;20133;-61
2022/03/24 12:22:36;;;;;;;1.27;0.40;;;;;;;;;;5008061;28;20058;-60
2022/03/24 12:25:17;;;;;;;1.00;0.40;;;;;;;;;;5007303;28;20144;-61
2022/03/24 12:28:03;;;;;;;1.23;0.40;;;;;;;;;;5005220;28;20060;-60
2022/03/24 12:30:48;;;;;;;1.17;0.40;;;;;;;;;;5002878;28;20625;-61
2022/03/24 12:33:15;;;;;;;0.43;0.30;;;;;;;;;;5005978;28;20042;-61
2022/03/24 12:35:45;;;;;;;0.63;0.30;;;;;;;;;;5005496;27;20069;-60
2022/03/24 12:38:21;;;;;;;9.15;0.50;;;;;;;;;;5005718;28;20049;-61
2022/03/24 12:41:06;;;;;;;1.10;0.40;;;;;;;;;;5007591;28;20042;-61
2022/03/24 12:43:43;;;;;;;0.82;0.40;;;;;;;;;;5005402;27;20041;-60
2022/03/24 12:46:19;;;;;;;1.10;0.40;;;;;;;;;;5005993;28;20068;-61
2022/03/24 12:48:45;;;;;;;1.20;0.40;;;;;;;;;;5006472;28;20105;-60
2022/03/24 12:51:17;;;;;;;0.88;0.40;;;;;;;;;;5006290;28;20168;-60
2022/03/24 12:53:51;;;;;;;1.15;0.32;;;;;;;;;;5004739;28;20778;-60
2022/03/24 12:56:22;;;;;;;3.75;0.57;;;;;;;;;;5020522;28;20441;-60
2022/03/24 12:58:54;;;;;;;3.92;0.50;;;;;;;;;;4998878;28;20046;-60
2022/03/24 13:01:20;;;;;;;1.35;0.40;;;;;;;;;;5003311;28;20065;-61
2022/03/24 13:03:54;;;;;;;0.90;0.40;;;;;;;;;;5007919;28;20477;-60
2022/03/24 13:06:19;;;;;;;;;;;;;;;;;;5004284;28;20099;-60
2022/03/24 13:09:05;;;;;;;0.63;0.30;;;;;;;;;;5006468;28;19921;-59
2022/03/24 13:11:47;;;;;;;2.25;0.50;;;;;;;;;;5005883;28;20049;-60
2022/03/24 13:14:13;;;;;;;1.48;0.50;;;;;;;;;;5008861;27;20065;-60
2022/03/24 13:16:39;;;;;;;2.00;0.47;;;;;;;;;;5006018;28;20032;-60
2022/03/24 13:19:05;;;;;;;1.15;0.40;;;;;;;;;;5007970;27;20056;-60
2022/03/24 13:21:31;;;;;;;2.88;0.40;;;;;;;;;;5004579;28;20714;-60
2022/03/24 13:23:56;;;;;;;1.45;0.45;;;;;;;;;;5007306;28;20478;-61
2022/03/24 13:26:22;;;;;;;1.50;0.43;;;;;;;;;;5004894;28;20037;-61
2022/03/24 13:28:54;;;;;;;1.35;0.50;;;;;;;;;;5007428;28;20555;-59
2022/03/24 13:31:28;;;;;;;3.75;0.50;;;;;;;;;;5004159;28;20061;-61
2022/03/24 13:33:54;;;;;;;1.70;0.60;;;;;;;;;;4992494;28;20494;-61
2022/03/24 13:36:20;;;;;;;4.88;0.50;;;;;;;;;;5005402;28;20048;-61
2022/03/24 13:38:46;;;;;;;1.50;0.40;;;;;;;;;;5005731;28;20034;-60
2022/03/24 13:41:12;;;;;;;0.73;0.30;;;;;;;;;;5005976;28;20553;-57
2022/03/24 13:43:38;;;;;;;4.65;0.57;;;;;;;;;;5006762;28;20919;-59
2022/03/24 13:46:04;;;;;;;6.82;0.43;;;;;;;;;;5009506;27;20041;-60
2022/03/24 13:48:30;;;;;;;2.35;0.50;;;;;;;;;;5006893;28;20091;-58
2022/03/24 13:51:08;;;;;;;1.35;0.43;;;;;;;;;;5008847;28;20057;-60
2022/03/24 13:53:35;;;;;;;0.82;0.40;;;;;;;;;;5008340;28;20041;-60
2022/03/24 13:56:10;;;;;;;5.45;0.60;;;;;;;;;;5007871;28;20468;-60
2022/03/24 13:58:37;;;;;;;1.17;0.40;;;;;;;;;;5019618;28;20132;-60
2022/03/24 14:01:11;;;;;;;2.33;0.65;;;;;;;;;;4997566;28;20046;-60
2022/03/24 14:03:41;;;;;;;0.95;0.40;;;;;;;;;;5005418;28;20069;-60
2022/03/24 14:06:13;;;;;;;2.28;0.55;;;;;;;;;;5009569;28;20251;-59
2022/03/24 14:08:45;;;;;;;1.35;0.55;;;;;;;;;;5021430;27;20110;-61
2022/03/24 14:11:16;;;;;;;1.15;0.40;;;;;;;;;;5006236;28;20080;-59
2022/03/24 14:13:42;;;;;;;4.35;0.50;;;;;;;;;;5007895;28;20070;-60
2022/03/24 14:16:09;;;;;;;2.30;0.50;;;;;;;;;;5007513;28;20518;-60
2022/03/24 14:18:35;;;;;;;4.63;0.73;;;;;;;;;;5004505;28;20038;-61
2022/03/24 14:21:01;;;;;;;3.38;0.60;;;;;;;;;;5007254;28;20124;-59
2022/03/24 14:23:28;;;;;;;1.98;0.68;;;;;;;;;;5019427;27;20583;-60
2022/03/24 14:25:58;;;;;;;4.03;0.52;;;;;;;;;;5005442;28;20044;-61
2022/03/24 14:28:31;;;;;;;3.67;0.77;;;;;;;;;;5005113;28;20402;-60
2022/03/24 14:30:57;;;;;;;;;;;;;;;;;;5007010;27;20050;-60
2022/03/24 14:33:24;;;;;;;2.53;0.43;;;;;;;;;;5006174;27;19945;-60
2022/03/24 14:35:56;;;;;;;4.50;0.40;;;;;;;;;;5109209;27;20038;-61
2022/03/24 14:38:22;;;;;;;1.23;0.40;;;;;;;;;;5006634;28;20375;-60
2022/03/24 14:40:48;;;;;;;5.00;0.85;;;;;;;;;;5008260;28;20091;-60
2022/03/24 14:43:15;;;;;;;3.60;0.50;;;;;;;;;;5007623;28;20046;-60
2022/03/24 14:45:42;;;;;;;2.60;0.60;;;;;;;;;;5007995;28;20041;-60